createdAt,value
2019-01-24T00:01:36.247Z,148.15
2019-01-24T00:04:05.890Z,146.70
2019-01-24T00:06:35.410Z,170.65
2019-01-24T00:09:08.322Z,185.97
2019-01-24T00:11:37.815Z,175.75
2019-01-24T00:14:07.338Z,202.87
2019-01-24T00:16:36.854Z,205.00
2019-01-24T00:19:06.373Z,201.62
2019-01-24T00:21:35.871Z,201.20
2019-01-24T00:24:05.443Z,208.20
2019-01-24T00:26:34.947Z,207.00
2019-01-24T00:29:04.629Z,212.27
2019-01-24T00:31:34.156Z,232.10
2019-01-24T00:34:03.664Z,240.37
2019-01-24T00:36:33.182Z,238.25
2019-01-24T00:39:02.774Z,229.65
2019-01-24T00:41:33.449Z,229.17
2019-01-24T00:44:03.065Z,242.20
2019-01-24T00:46:32.580Z,242.82
2019-01-24T00:49:02.101Z,239.95
2019-01-24T00:51:31.620Z,251.75
2019-01-24T00:54:01.142Z,253.35
2019-01-24T00:56:30.726Z,255.90
2019-01-24T00:59:00.265Z,249.65
2019-01-24T01:01:29.864Z,236.65
2019-01-24T01:04:00.360Z,243.52
2019-01-24T01:06:29.867Z,246.57
2019-01-24T01:08:59.394Z,240.68
2019-01-24T01:11:29.071Z,235.08
2019-01-24T01:13:58.585Z,241.40
2019-01-24T01:16:28.093Z,238.77
2019-01-24T01:18:57.612Z,230.80
2019-01-24T01:21:27.120Z,219.43
2019-01-24T01:23:56.638Z,225.80
2019-01-24T01:26:26.204Z,215.32
2019-01-24T01:28:55.790Z,211.62
2019-01-24T01:31:25.289Z,213.80
2019-01-24T01:33:54.827Z,210.45
2019-01-24T01:36:24.398Z,212.68
2019-01-24T01:38:53.973Z,203.12
2019-01-24T01:41:23.478Z,191.87
2019-01-24T01:43:52.985Z,189.67
2019-01-24T01:46:22.502Z,193.93
2019-01-24T01:48:52.002Z,188.45
2019-01-24T01:51:21.510Z,188.32
2019-01-24T01:53:51.114Z,178.35
2019-01-24T01:56:20.620Z,184.37
2019-01-24T01:58:50.131Z,171.10
2019-01-24T02:01:19.659Z,171.00
2019-01-24T02:03:50.139Z,159.80
2019-01-24T02:06:20.645Z,167.75
2019-01-24T02:08:50.170Z,169.93
2019-01-24T02:11:19.744Z,162.03
2019-01-24T02:13:49.280Z,159.80
2019-01-24T02:16:18.775Z,162.07
2019-01-24T02:18:48.291Z,163.68
2019-01-24T02:21:17.800Z,158.57
2019-01-24T02:23:47.328Z,154.18
2019-01-24T02:26:16.827Z,164.90
2019-01-24T02:28:46.352Z,151.68
2019-01-24T02:31:15.849Z,152.05
2019-01-24T02:33:45.347Z,160.95
2019-01-24T02:36:14.849Z,139.00
2019-01-24T02:38:44.389Z,145.00
2019-01-24T02:41:13.902Z,135.60
2019-01-24T02:43:43.429Z,123.92
2019-01-24T02:46:13.893Z,128.45
2019-01-24T02:48:43.408Z,128.10
2019-01-24T02:51:12.913Z,117.82
2019-01-24T02:53:42.428Z,118.03
2019-01-24T02:56:12.003Z,123.67
2019-01-24T02:58:41.527Z,118.37
2019-01-24T03:01:11.035Z,120.22
2019-01-24T03:03:40.542Z,118.77
2019-01-24T03:06:10.059Z,122.40
2019-01-24T03:08:39.570Z,124.97
2019-01-24T03:11:09.171Z,119.37
2019-01-24T03:13:38.676Z,120.60
2019-01-24T03:16:08.197Z,119.15
2019-01-24T03:18:37.715Z,118.25
2019-01-24T03:21:07.241Z,121.45
2019-01-24T03:23:36.765Z,114.47
2019-01-24T03:26:06.286Z,116.45
2019-01-24T03:28:35.785Z,117.72
2019-01-24T03:31:05.342Z,112.77
2019-01-24T03:33:34.823Z,115.90
2019-01-24T03:36:04.433Z,111.77
2019-01-24T03:38:33.925Z,123.00
2019-01-24T03:41:03.434Z,116.77
2019-01-24T03:43:32.948Z,113.70
2019-01-24T03:46:02.460Z,117.30
2019-01-24T03:48:31.954Z,115.75
2019-01-24T03:51:01.477Z,119.28
2019-01-24T03:53:30.978Z,110.70
2019-01-24T03:56:00.496Z,114.80
2019-01-24T03:58:29.997Z,107.10
2019-01-24T04:00:59.685Z,109.23
2019-01-24T04:03:29.195Z,114.65
2019-01-24T04:05:58.779Z,119.97
2019-01-24T04:08:28.278Z,102.90
2019-01-24T04:10:57.808Z,105.63
2019-01-24T04:13:27.339Z,108.57
2019-01-24T04:15:56.918Z,109.72
2019-01-24T04:18:26.516Z,109.03
2019-01-24T04:20:56.036Z,111.40
2019-01-24T04:23:25.560Z,107.80
2019-01-24T04:25:55.078Z,104.75
2019-01-24T04:28:24.606Z,102.80
2019-01-24T04:30:54.173Z,108.97
2019-01-24T04:33:23.683Z,91.77
2019-01-24T04:35:53.210Z,86.23
2019-01-24T04:38:22.729Z,88.25
2019-01-24T04:40:52.245Z,82.27
2019-01-24T04:43:21.801Z,81.67
2019-01-24T04:45:51.413Z,79.35
2019-01-24T04:48:20.893Z,86.30
2019-01-24T04:50:50.472Z,78.80
2019-01-24T04:53:19.973Z,81.97
2019-01-24T04:55:49.505Z,80.03
2019-01-24T04:58:18.994Z,78.62
2019-01-24T05:00:50.049Z,72.87
2019-01-24T05:03:19.528Z,81.30
2019-01-24T05:05:49.718Z,76.25
2019-01-24T05:08:19.266Z,83.73
2019-01-24T05:10:48.805Z,78.80
2019-01-24T05:13:18.395Z,77.23
2019-01-24T05:15:47.913Z,76.70
2019-01-24T05:18:17.416Z,80.38
2019-01-24T05:20:47.020Z,74.07
2019-01-24T05:23:16.511Z,82.63
2019-01-24T05:25:46.001Z,82.20
2019-01-24T05:28:15.522Z,82.35
2019-01-24T05:30:46.087Z,80.50
2019-01-24T05:33:15.575Z,75.60
2019-01-24T05:35:45.170Z,76.00
2019-01-24T05:38:14.763Z,82.10
2019-01-24T05:40:44.261Z,81.25
2019-01-24T05:43:13.797Z,80.17
2019-01-24T05:45:43.369Z,73.02
2019-01-24T05:48:12.862Z,76.50
2019-01-24T05:50:42.374Z,73.53
2019-01-24T05:53:11.853Z,76.33
2019-01-24T05:55:41.424Z,76.85
2019-01-24T05:58:10.906Z,79.10
2019-01-24T06:00:43.047Z,75.52
2019-01-24T06:03:12.706Z,82.27
2019-01-24T06:05:42.294Z,76.22
2019-01-24T06:08:11.818Z,72.90
2019-01-24T06:10:41.316Z,79.47
2019-01-24T06:13:10.795Z,74.60
2019-01-24T06:15:40.341Z,80.12
2019-01-24T06:18:10.542Z,73.20
2019-01-24T06:20:40.076Z,75.40
2019-01-24T06:23:11.117Z,66.40
2019-01-24T06:25:40.909Z,69.45
2019-01-24T06:28:10.502Z,71.42
2019-01-24T06:30:40.054Z,70.25
2019-01-24T06:33:09.620Z,70.57
2019-01-24T06:35:39.152Z,69.75
2019-01-24T06:38:08.650Z,70.28
2019-01-24T06:40:38.219Z,63.15
2019-01-24T06:43:07.717Z,63.90
2019-01-24T06:45:37.206Z,69.40
2019-01-24T06:48:06.785Z,64.10
2019-01-24T06:50:36.278Z,62.80
2019-01-24T06:53:05.766Z,66.35
2019-01-24T06:55:35.317Z,65.32
2019-01-24T06:58:04.818Z,66.85
2019-01-24T07:00:34.298Z,64.40
2019-01-24T07:03:03.796Z,64.42
2019-01-24T07:05:33.362Z,63.80
2019-01-24T07:08:02.860Z,70.25
2019-01-24T07:10:32.422Z,64.45
2019-01-24T07:13:01.926Z,62.85
2019-01-24T07:15:31.401Z,64.10
2019-01-24T07:18:00.902Z,60.30
2019-01-24T07:20:30.395Z,64.53
2019-01-24T07:22:59.885Z,60.28
2019-01-24T07:25:29.650Z,64.45
2019-01-24T07:27:59.134Z,71.57
2019-01-24T07:30:28.700Z,65.22
2019-01-24T07:32:58.190Z,63.73
2019-01-24T07:35:27.762Z,62.58
2019-01-24T07:37:57.255Z,61.13
2019-01-24T07:40:26.742Z,62.67
2019-01-24T07:42:56.251Z,67.72
2019-01-24T07:45:31.398Z,66.28
2019-01-24T07:48:00.909Z,63.73
2019-01-24T07:50:30.490Z,70.08
2019-01-24T07:53:00.009Z,67.15
2019-01-24T07:55:29.506Z,64.03
2019-01-24T07:57:59.076Z,65.37
2019-01-24T08:00:28.945Z,66.65
2019-01-24T08:02:58.609Z,71.10
2019-01-24T08:05:28.441Z,69.40
2019-01-24T08:07:58.042Z,65.62
2019-01-24T08:10:27.533Z,75.75
2019-01-24T08:12:57.031Z,72.55
2019-01-24T08:15:26.534Z,74.12
2019-01-24T08:17:56.024Z,72.97
2019-01-24T08:20:26.802Z,79.47
2019-01-24T08:22:56.303Z,79.80
2019-01-24T08:25:25.873Z,74.85
2019-01-24T08:27:55.361Z,79.35
2019-01-24T08:30:29.767Z,82.37
2019-01-24T08:32:59.326Z,86.75
2019-01-24T08:35:28.882Z,87.17
2019-01-24T08:37:58.445Z,85.25
2019-01-24T08:40:28.005Z,83.97
2019-01-24T08:42:57.569Z,104.80
2019-01-24T08:45:27.072Z,100.20
2019-01-24T08:47:56.561Z,105.78
2019-01-24T08:50:26.073Z,112.40
2019-01-24T08:52:55.653Z,110.85
2019-01-24T08:55:30.945Z,110.48
2019-01-24T08:58:00.447Z,112.20
2019-01-24T09:00:30.023Z,117.72
2019-01-24T09:02:59.590Z,119.47
2019-01-24T09:05:29.082Z,111.27
2019-01-24T09:07:59.553Z,113.32
2019-01-24T09:10:31.587Z,118.85
2019-01-24T09:13:02.124Z,111.25
2019-01-24T09:15:31.699Z,102.87
2019-01-24T09:18:01.195Z,105.07
2019-01-24T09:20:30.709Z,107.75
2019-01-24T09:23:00.195Z,112.03
2019-01-24T09:25:29.762Z,115.47
2019-01-24T09:27:59.326Z,110.00
2019-01-24T09:30:29.152Z,103.13
2019-01-24T09:32:58.638Z,94.55
2019-01-24T09:35:29.008Z,97.22
2019-01-24T09:37:58.533Z,94.05
2019-01-24T09:40:28.132Z,91.60
2019-01-24T09:42:57.735Z,85.50
2019-01-24T09:45:28.648Z,89.95
2019-01-24T09:47:59.980Z,88.25
2019-01-24T09:50:29.988Z,86.00
2019-01-24T09:52:59.554Z,99.00
2019-01-24T09:55:29.150Z,88.60
2019-01-24T09:57:58.738Z,90.13
2019-01-24T10:00:30.394Z,86.07
2019-01-24T10:03:00.060Z,94.17
2019-01-24T10:05:29.638Z,84.90
2019-01-24T10:07:59.148Z,88.53
2019-01-24T10:10:29.230Z,88.40
2019-01-24T10:12:58.877Z,85.30
2019-01-24T10:15:28.442Z,91.23
2019-01-24T10:17:57.973Z,84.52
2019-01-24T10:20:28.294Z,97.73
2019-01-24T10:22:57.799Z,92.08
2019-01-24T10:25:29.966Z,93.10
2019-01-24T10:28:00.504Z,91.45
2019-01-24T10:30:30.451Z,90.15
2019-01-24T10:33:00.102Z,91.00
2019-01-24T10:35:29.609Z,94.75
2019-01-24T10:37:59.193Z,93.17
2019-01-24T10:40:30.072Z,85.44
2019-01-24T10:42:59.650Z,101.03
2019-01-24T10:45:29.239Z,95.65
2019-01-24T10:47:58.900Z,97.90
2019-01-24T10:50:28.598Z,89.27
2019-01-24T10:52:58.187Z,84.73
2019-01-24T10:55:28.455Z,94.30
2019-01-24T10:58:00.376Z,95.55
2019-01-24T11:00:33.236Z,95.33
2019-01-24T11:03:04.524Z,93.00
2019-01-24T11:05:34.229Z,85.27
2019-01-24T11:08:03.858Z,93.22
2019-01-24T11:10:33.387Z,85.50
2019-01-24T11:13:02.880Z,88.27
2019-01-24T11:15:32.482Z,94.37
2019-01-24T11:18:02.060Z,90.90
2019-01-24T11:20:31.555Z,97.30
2019-01-24T11:23:02.212Z,99.52
2019-01-24T11:25:32.291Z,94.10
2019-01-24T11:28:01.859Z,100.72
2019-01-24T11:30:31.735Z,96.37
2019-01-24T11:33:01.337Z,98.55
2019-01-24T11:35:32.796Z,102.60
2019-01-24T11:38:02.336Z,102.47
2019-01-24T11:40:31.903Z,90.80
2019-01-24T11:43:01.430Z,100.70
2019-01-24T11:45:33.786Z,97.57
2019-01-24T11:48:03.355Z,103.50
2019-01-24T11:50:32.964Z,94.70
2019-01-24T11:53:02.616Z,96.05
2019-01-24T11:55:32.327Z,90.83
2019-01-24T11:58:01.885Z,92.70
2019-01-24T12:00:36.099Z,100.47
2019-01-24T12:03:06.855Z,94.17
2019-01-24T12:05:36.435Z,96.32
2019-01-24T12:08:07.345Z,102.07
2019-01-24T12:10:37.831Z,98.10
2019-01-24T12:13:07.446Z,97.27
2019-01-24T12:15:37.019Z,94.37
2019-01-24T12:18:06.706Z,99.43
2019-01-24T12:20:36.275Z,105.12
2019-01-24T12:23:05.875Z,99.32
2019-01-24T12:25:35.368Z,106.27
2019-01-24T12:28:05.852Z,108.38
2019-01-24T12:30:36.151Z,107.90
2019-01-24T12:33:06.693Z,117.50
2019-01-24T12:35:36.699Z,113.40
2019-01-24T12:38:06.402Z,120.92
2019-01-24T12:40:35.972Z,109.60
2019-01-24T12:43:05.687Z,108.50
2019-01-24T12:45:36.749Z,112.77
2019-01-24T12:48:07.294Z,103.83
2019-01-24T12:50:36.980Z,105.90
2019-01-24T12:53:07.826Z,112.70
2019-01-24T12:55:37.537Z,110.03
2019-01-24T12:58:07.275Z,100.50
2019-01-24T13:00:38.581Z,110.20
2019-01-24T13:03:08.322Z,115.32
2019-01-24T13:05:38.963Z,110.20
2019-01-24T13:08:08.618Z,105.43
2019-01-24T13:10:39.980Z,110.00
2019-01-24T13:13:10.151Z,109.27
2019-01-24T13:15:39.889Z,109.15
2019-01-24T13:18:10.397Z,110.53
2019-01-24T13:20:39.919Z,107.45
2019-01-24T13:23:09.455Z,111.30
2019-01-24T13:25:38.971Z,117.10
2019-01-24T13:28:08.500Z,120.73
2019-01-24T13:30:37.999Z,106.67
2019-01-24T13:33:07.641Z,105.27
2019-01-24T13:35:37.460Z,106.32
2019-01-24T13:38:07.396Z,116.80
2019-01-24T13:40:36.958Z,97.90
2019-01-24T13:43:07.554Z,113.40
2019-01-24T13:45:38.902Z,106.12
2019-01-24T13:48:08.478Z,105.73
2019-01-24T13:50:38.026Z,104.00
2019-01-24T13:53:07.780Z,102.23
2019-01-24T13:55:37.357Z,113.25
2019-01-24T13:58:07.300Z,111.72
2019-01-24T14:00:38.688Z,121.27
2019-01-24T14:03:20.695Z,123.13
2019-01-24T14:05:50.308Z,122.95
2019-01-24T14:08:19.811Z,135.68
2019-01-24T14:10:49.300Z,122.80
2019-01-24T14:13:18.789Z,117.67
2019-01-24T14:15:48.276Z,122.85
2019-01-24T14:18:17.786Z,119.28
2019-01-24T14:20:47.280Z,121.62
2019-01-24T14:23:16.839Z,120.55
2019-01-24T14:25:46.402Z,118.25
2019-01-24T14:28:15.976Z,116.43
2019-01-24T14:30:45.451Z,121.72
2019-01-24T14:33:14.954Z,116.82
2019-01-24T14:35:44.461Z,128.47
2019-01-24T14:38:13.953Z,114.82
2019-01-24T14:40:43.438Z,108.87
2019-01-24T14:43:12.942Z,115.50
2019-01-24T14:45:42.421Z,113.62
2019-01-24T14:48:12.031Z,113.07
2019-01-24T14:50:41.628Z,116.23
2019-01-24T14:53:11.129Z,117.70
2019-01-24T14:55:40.645Z,114.87
2019-01-24T14:58:10.252Z,113.92
2019-01-24T15:00:43.297Z,112.43
2019-01-24T15:03:12.846Z,109.67
2019-01-24T15:05:42.339Z,117.25
2019-01-24T15:08:11.991Z,102.30
2019-01-24T15:10:41.491Z,112.57
2019-01-24T15:13:10.983Z,112.57
2019-01-24T15:15:41.655Z,108.92
2019-01-24T15:18:11.293Z,112.35
2019-01-24T15:20:40.895Z,113.60
2019-01-24T15:23:10.413Z,114.40
2019-01-24T15:25:39.923Z,108.10
2019-01-24T15:28:09.433Z,113.37
2019-01-24T15:30:38.922Z,112.00
2019-01-24T15:33:08.526Z,110.97
2019-01-24T15:35:38.014Z,114.97
2019-01-24T15:38:07.569Z,120.87
2019-01-24T15:40:37.061Z,129.47
2019-01-24T15:43:06.722Z,117.93
2019-01-24T15:45:36.222Z,120.80
2019-01-24T15:48:06.369Z,126.42
2019-01-24T15:50:35.856Z,114.20
2019-01-24T15:53:05.433Z,114.23
2019-01-24T15:55:34.923Z,113.15
2019-01-24T15:58:04.632Z,118.60
2019-01-24T16:00:34.220Z,118.75
2019-01-24T16:03:03.786Z,117.87
2019-01-24T16:05:33.279Z,115.10
2019-01-24T16:08:02.849Z,118.47
2019-01-24T16:10:32.361Z,120.53
2019-01-24T16:13:01.959Z,120.05
2019-01-24T16:15:36.437Z,118.80
2019-01-24T16:18:10.034Z,124.85
2019-01-24T16:20:39.618Z,113.33
2019-01-24T16:23:09.206Z,113.97
2019-01-24T16:25:39.139Z,121.67
2019-01-24T16:28:08.767Z,114.40
2019-01-24T16:30:38.748Z,126.58
2019-01-24T16:33:08.967Z,116.23
2019-01-24T16:35:39.547Z,122.92
2019-01-24T16:38:09.828Z,119.97
2019-01-24T16:40:39.565Z,114.43
2019-01-24T16:43:09.221Z,123.63
2019-01-24T16:45:38.930Z,119.00
2019-01-24T16:48:08.520Z,122.25
2019-01-24T16:50:38.108Z,122.57
2019-01-24T16:53:07.635Z,109.93
2019-01-24T16:55:37.279Z,116.42
2019-01-24T16:58:07.878Z,120.72
2019-01-24T17:00:43.726Z,116.83
2019-01-24T17:03:13.335Z,110.40
2019-01-24T17:05:42.942Z,109.63
2019-01-24T17:08:16.524Z,107.27
2019-01-24T17:10:43.953Z,120.28
2019-01-24T17:13:13.553Z,110.00
2019-01-24T17:15:43.114Z,109.30
2019-01-24T17:18:12.642Z,106.90
2019-01-24T17:20:42.175Z,110.97
2019-01-24T17:23:11.793Z,104.10
2019-01-24T17:25:41.322Z,112.07
2019-01-24T17:28:10.791Z,113.08
2019-01-24T17:30:40.540Z,106.07
2019-01-24T17:33:10.112Z,99.30
2019-01-24T17:35:40.815Z,114.03
2019-01-24T17:38:10.513Z,108.30
2019-01-24T17:40:40.134Z,120.53
2019-01-24T17:43:09.742Z,102.97
2019-01-24T17:45:39.370Z,99.30
2019-01-24T17:48:08.964Z,100.47
2019-01-24T17:50:38.499Z,106.13
2019-01-24T17:53:08.076Z,103.13
2019-01-24T17:55:40.855Z,105.77
2019-01-24T17:58:11.665Z,99.70
2019-01-24T18:00:45.648Z,106.63
2019-01-24T18:03:15.259Z,102.10
2019-01-24T18:05:44.843Z,103.47
2019-01-24T18:08:14.472Z,105.47
2019-01-24T18:10:44.009Z,103.10
2019-01-24T18:13:13.549Z,97.57
2019-01-24T18:15:43.172Z,101.62
2019-01-24T18:18:15.392Z,108.70
2019-01-24T18:20:45.547Z,100.30
2019-01-24T18:23:15.138Z,105.87
2019-01-24T18:25:44.676Z,103.30
2019-01-24T18:28:14.427Z,102.05
2019-01-24T18:30:44.047Z,107.10
2019-01-24T18:33:13.664Z,100.27
2019-01-24T18:35:43.258Z,111.00
2019-01-24T18:38:12.789Z,104.43
2019-01-24T18:40:43.450Z,98.27
2019-01-24T18:43:22.279Z,109.00
2019-01-24T18:45:53.101Z,103.78
2019-01-24T18:48:23.635Z,101.70
2019-01-24T18:50:53.174Z,97.97
2019-01-24T18:53:22.949Z,89.95
2019-01-24T18:55:52.547Z,96.45
2019-01-24T18:58:22.163Z,103.30
2019-01-24T19:00:51.685Z,100.07
2019-01-24T19:03:21.241Z,101.25
2019-01-24T19:05:50.751Z,111.73
2019-01-24T19:08:20.269Z,132.80
2019-01-24T19:10:49.920Z,119.67
2019-01-24T19:13:19.525Z,108.78
2019-01-24T19:15:49.790Z,104.87
2019-01-24T19:18:19.305Z,119.62
2019-01-24T19:20:48.859Z,104.75
2019-01-24T19:23:18.373Z,108.73
2019-01-24T19:25:47.963Z,108.40
2019-01-24T19:28:18.639Z,111.88
2019-01-24T19:30:48.240Z,104.85
2019-01-24T19:33:17.879Z,108.42
2019-01-24T19:35:47.359Z,116.37
2019-01-24T19:38:16.941Z,112.97
2019-01-24T19:40:46.471Z,114.60
2019-01-24T19:43:16.076Z,115.80
2019-01-24T19:45:46.535Z,107.30
2019-01-24T19:48:16.085Z,108.12
2019-01-24T19:50:45.696Z,113.17
2019-01-24T19:53:15.217Z,111.08
2019-01-24T19:55:44.708Z,107.35
2019-01-24T19:58:14.222Z,110.37
2019-01-24T20:00:43.731Z,107.97
2019-01-24T20:03:13.242Z,111.40
2019-01-24T20:05:43.726Z,116.70
2019-01-24T20:08:13.260Z,120.50
2019-01-24T20:10:42.761Z,129.73
2019-01-24T20:13:12.289Z,123.65
2019-01-24T20:15:41.883Z,126.10
2019-01-24T20:18:11.475Z,130.27
2019-01-24T20:20:40.995Z,130.15
2019-01-24T20:23:10.503Z,131.47
2019-01-24T20:25:40.080Z,133.77
2019-01-24T20:28:09.661Z,142.47
2019-01-24T20:30:39.182Z,133.47
2019-01-24T20:33:08.784Z,135.12
2019-01-24T20:35:42.028Z,125.07
2019-01-24T20:38:11.880Z,130.43
2019-01-24T20:40:41.392Z,133.27
2019-01-24T20:43:12.195Z,136.10
2019-01-24T20:45:41.693Z,130.15
2019-01-24T20:48:11.288Z,137.35
2019-01-24T20:50:40.811Z,129.32
2019-01-24T20:53:10.405Z,136.97
2019-01-24T20:55:40.458Z,129.30
2019-01-24T20:58:10.308Z,132.30
2019-01-24T21:00:39.826Z,134.13
2019-01-24T21:03:09.415Z,129.77
2019-01-24T21:05:38.952Z,126.90
2019-01-24T21:08:08.475Z,134.70
2019-01-24T21:10:37.983Z,130.93
2019-01-24T21:13:07.565Z,126.80
2019-01-24T21:15:37.085Z,128.87
2019-01-24T21:18:06.613Z,136.65
2019-01-24T21:20:36.226Z,130.00
2019-01-24T21:23:05.886Z,125.27
2019-01-24T21:25:35.395Z,129.90
2019-01-24T21:28:05.259Z,129.40
2019-01-24T21:30:35.976Z,126.07
2019-01-24T21:33:06.560Z,131.22
2019-01-24T21:35:36.176Z,124.50
2019-01-24T21:38:07.636Z,134.97
2019-01-24T21:40:37.232Z,127.57
2019-01-24T21:43:06.903Z,127.13
2019-01-24T21:45:37.193Z,132.78
2019-01-24T21:48:07.129Z,132.97
2019-01-24T21:50:36.783Z,128.13
2019-01-24T21:53:06.598Z,128.55
2019-01-24T21:55:36.451Z,128.32
2019-01-24T21:58:08.213Z,125.85
2019-01-24T22:00:38.800Z,130.47
2019-01-24T22:03:08.323Z,131.50
2019-01-24T22:05:37.970Z,138.37
2019-01-24T22:08:07.508Z,129.27
2019-01-24T22:10:37.096Z,135.15
2019-01-24T22:13:06.651Z,135.65
2019-01-24T22:15:36.232Z,130.32
2019-01-24T22:18:06.636Z,132.93
2019-01-24T22:20:36.166Z,132.10
2019-01-24T22:23:05.887Z,137.72
2019-01-24T22:25:35.883Z,138.95
2019-01-24T22:28:06.338Z,139.35
2019-01-24T22:30:45.031Z,138.28
2019-01-24T22:33:14.606Z,135.50
2019-01-24T22:35:44.123Z,137.70
2019-01-24T22:38:13.616Z,147.40
2019-01-24T22:40:43.127Z,146.37
2019-01-24T22:43:12.620Z,145.80
2019-01-24T22:45:42.206Z,154.97
2019-01-24T22:48:11.983Z,138.93
2019-01-24T22:50:41.503Z,138.92
2019-01-24T22:53:11.047Z,148.02
2019-01-24T22:55:40.546Z,155.95
2019-01-24T22:58:10.123Z,152.90
2019-01-24T23:00:51.640Z,147.35
2019-01-24T23:03:31.671Z,150.95
2019-01-24T23:06:01.247Z,150.50
2019-01-24T23:08:30.946Z,152.73
2019-01-24T23:11:00.477Z,157.57
2019-01-24T23:13:30.040Z,152.85
2019-01-24T23:15:59.552Z,155.57
2019-01-24T23:18:29.048Z,145.25
2019-01-24T23:20:58.560Z,150.50
2019-01-24T23:23:28.050Z,162.67
2019-01-24T23:25:57.574Z,154.53
2019-01-24T23:28:27.063Z,157.07
2019-01-24T23:30:56.643Z,155.35
2019-01-24T23:33:26.135Z,149.62
2019-01-24T23:35:55.641Z,154.68
2019-01-24T23:38:25.206Z,149.95
2019-01-24T23:40:54.703Z,159.90
2019-01-24T23:43:24.232Z,156.32
2019-01-24T23:45:53.806Z,157.05
2019-01-24T23:48:23.298Z,170.47
2019-01-24T23:50:52.811Z,169.02
2019-01-24T23:53:22.307Z,161.28
2019-01-24T23:55:51.845Z,159.78
2019-01-24T23:58:21.343Z,168.80
